M I D A S
Marine Information and Data Acquisition System
Tripno 1338 of the Zeeleeuw from 2007-07-05 06:31:09 to 2007-07-05 15:53:31
Back to CruiseResearch ActivitiesStationsMapUnderway DataData graphs

EquipmentUnitsComment
TimeDGPSUTC
LatitudeDGPSDM.mWGS84
LongitudeDGPSDM.mWGS84
HeadingGyrodeg 
SOGDGPSknotsSpeed over ground
COGDGPSdegCourse over ground
DepthEcho soundermeters200 kHz
Missing or incorrect values are displayed as -999
Navigation data collected by the RV Zeeleeuw from 2007-07-05 06:31:52 to 2007-07-05 16:04:38
                                                                                    Next 1000 lines
Time Latitude Longitude Heading SOG COG Depth
2007-07-05 06:32:02 51°13.598 2°56.092 112.7 0.9 286 9.3
2007-07-05 06:32:07 51°13.598 2°56.09 112.5 1.1 290 9.2
2007-07-05 06:32:12 51°13.599 2°56.087 113 1.5 290 9.3
2007-07-05 06:32:17 51°13.6 2°56.083 114.1 1.9 293 9.5
2007-07-05 06:32:22 51°13.602 2°56.079 115.4 2.3 295 9.5
2007-07-05 06:32:27 51°13.603 2°56.073 116.6 2.6 294 -999
2007-07-05 06:32:32 51°13.605 2°56.068 117.8 2.9 296 -999
2007-07-05 06:32:37 51°13.606 2°56.061 118.3 3.2 295 -999
2007-07-05 06:32:42 51°13.608 2°56.055 118.3 3.4 296 -999
2007-07-05 06:32:47 51°13.611 2°56.048 118.5 3.5 295 -999
2007-07-05 06:32:52 51°13.613 2°56.04 119 3.7 296 -999
2007-07-05 06:32:57 51°13.615 2°56.033 119.7 3.9 296 -999
2007-07-05 06:33:02 51°13.618 2°56.025 120.9 4 298 -999
2007-07-05 06:33:07 51°13.62 2°56.017 122 4.1 298 -999
2007-07-05 06:33:13 51°13.624 2°56.007 123.3 4.3 301 -999
2007-07-05 06:33:17 51°13.626 2°56 124.7 4.4 300 -999
2007-07-05 06:33:22 51°13.63 2°55.992 125.5 4.4 302 -999
2007-07-05 06:33:27 51°13.633 2°55.984 126.2 4.5 303 -999
2007-07-05 06:33:32 51°13.636 2°55.976 126.8 4.5 303 -999
2007-07-05 06:33:38 51°13.641 2°55.965 127.3 4.5 304 -999
2007-07-05 06:33:42 51°13.643 2°55.959 127.4 4.5 305 -999
2007-07-05 06:33:47 51°13.647 2°55.951 127.5 4.6 305 -999
2007-07-05 06:33:52 51°13.651 2°55.942 127.8 4.6 306 -999
2007-07-05 06:33:57 51°13.655 2°55.934 128.1 4.6 306 -999
2007-07-05 06:34:02 51°13.658 2°55.926 128.1 4.6 306 -999
2007-07-05 06:34:07 51°13.662 2°55.918 127.7 4.6 305 -999
2007-07-05 06:34:12 51°13.666 2°55.909 127 4.6 305 -999
2007-07-05 06:34:17 51°13.669 2°55.901 125.3 4.5 304 -999
2007-07-05 06:34:23 51°13.673 2°55.891 123.8 4.6 302 -999
2007-07-05 06:34:27 51°13.676 2°55.884 122.5 4.5 302 -999
2007-07-05 06:34:32 51°13.679 2°55.876 121.2 4.4 300 -999
2007-07-05 06:34:37 51°13.682 2°55.867 119.8 4.3 299 -999
2007-07-05 06:34:42 51°13.685 2°55.859 118.3 4.3 298 -999
2007-07-05 06:34:47 51°13.687 2°55.851 116.6 4.1 297 -999
2007-07-05 06:34:52 51°13.69 2°55.843 114.8 4 295 -999
2007-07-05 06:34:57 51°13.692 2°55.835 113.1 3.9 294 -999
2007-07-05 06:35:02 51°13.694 2°55.827 111.3 3.8 291 -999
2007-07-05 06:35:07 51°13.696 2°55.819 109.5 3.7 290 -999
2007-07-05 06:35:13 51°13.698 2°55.81 107.5 3.8 287 -999
2007-07-05 06:35:17 51°13.699 2°55.804 105.6 3.7 286 -999
2007-07-05 06:35:22 51°13.7 2°55.796 103.8 3.7 284 -999
2007-07-05 06:35:27 51°13.701 2°55.788 102.7 3.6 282 -999
2007-07-05 06:35:32 51°13.702 2°55.78 101 3.4 281 -999
2007-07-05 06:35:37 51°13.703 2°55.773 100 3.2 278 -999
2007-07-05 06:35:42 51°13.703 2°55.767 98.8 2.9 279 -999
2007-07-05 06:35:47 51°13.704 2°55.761 97.7 2.5 275 -999
2007-07-05 06:35:52 51°13.704 2°55.757 96.5 1.7 277 -999
2007-07-05 06:35:58 51°13.704 2°55.756 93.7 0.5 281 13.6
2007-07-05 06:36:02 51°13.704 2°55.756 90.2 0.5 44 13.3
2007-07-05 06:36:07 51°13.705 2°55.758 85.3 0.9 67 13.4
2007-07-05 06:36:12 51°13.706 2°55.761 79.5 1.5 59 13.5
2007-07-05 06:36:17 51°13.707 2°55.764 71.6 1.8 57 13.5
2007-07-05 06:36:22 51°13.709 2°55.767 62.4 1.6 48 5
2007-07-05 06:36:27 51°13.71 2°55.77 56.3 1.5 51 5
2007-07-05 06:36:32 51°13.711 2°55.771 53.1 1 49 5
2007-07-05 06:36:37 51°13.711 2°55.772 50 0.5 56 13.6
2007-07-05 06:36:43 51°13.711 2°55.772 47 0.3 188 13.5
2007-07-05 06:36:47 51°13.71 2°55.771 44.2 0.8 206 13.6
2007-07-05 06:36:52 51°13.708 2°55.77 42 1.3 211 13.6
2007-07-05 06:36:57 51°13.706 2°55.768 41.1 1.6 212 13.7
2007-07-05 06:37:02 51°13.704 2°55.766 40.6 1.7 211 4.6
2007-07-05 06:37:07 51°13.703 2°55.764 41 1.6 213 -999
2007-07-05 06:37:12 51°13.701 2°55.762 42 1.6 210 -999
2007-07-05 06:37:17 51°13.699 2°55.76 42.8 1.5 215 -999
2007-07-05 06:37:22 51°13.697 2°55.759 43.8 1.3 209 -999
2007-07-05 06:37:27 51°13.696 2°55.758 44 1.1 211 -999
2007-07-05 06:37:33 51°13.695 2°55.757 43.5 0.7 193 -999
2007-07-05 06:37:37 51°13.695 2°55.757 42.4 0.2 77 12.8
2007-07-05 06:37:42 51°13.695 2°55.759 40.9 1 46 12.8
2007-07-05 06:37:47 51°13.697 2°55.76 37.8 1.6 30 13
2007-07-05 06:37:52 51°13.7 2°55.762 31.7 2.2 25 4.8
2007-07-05 06:37:57 51°13.704 2°55.764 24.2 2.7 13 4.8
2007-07-05 06:38:02 51°13.708 2°55.764 13 3.3 5 -999
2007-07-05 06:38:07 51°13.713 2°55.764 3.2 3.6 357 -999
2007-07-05 06:38:12 51°13.718 2°55.762 356.7 3.9 348 4.9
2007-07-05 06:38:17 51°13.724 2°55.759 350.2 4.3 340 13.3
2007-07-05 06:38:22 51°13.73 2°55.754 343.6 4.7 330 13.4
2007-07-05 06:38:27 51°13.735 2°55.748 335.1 4.7 327 13
2007-07-05 06:38:32 51°13.741 2°55.742 328.6 4.9 326 12.7
2007-07-05 06:38:37 51°13.746 2°55.735 325.2 5.2 323 12.4
2007-07-05 06:38:42 51°13.752 2°55.728 323.4 5.6 322 12
2007-07-05 06:38:47 51°13.759 2°55.72 322.6 5.8 321 11.7
2007-07-05 06:38:52 51°13.766 2°55.711 322.2 6.3 321 11.7
2007-07-05 06:38:57 51°13.773 2°55.702 322.1 6.7 320 11.7
2007-07-05 06:39:02 51°13.78 2°55.692 321.9 7.1 320 11.9
2007-07-05 06:39:07 51°13.788 2°55.681 322.5 7.5 321 11.9
2007-07-05 06:39:12 51°13.797 2°55.671 323.3 7.8 322 11.9
2007-07-05 06:39:17 51°13.806 2°55.66 324.6 8.1 324 11.9
2007-07-05 06:39:22 51°13.816 2°55.649 326.5 8.4 327 12.1
2007-07-05 06:39:27 51°13.826 2°55.64 328.7 8.6 329 12.2
2007-07-05 06:39:32 51°13.836 2°55.63 331.4 8.8 332 12.1
2007-07-05 06:39:37 51°13.848 2°55.621 334.3 8.9 333 12
2007-07-05 06:39:42 51°13.859 2°55.613 336.4 9 335 11.9
2007-07-05 06:39:47 51°13.87 2°55.604 337.6 9.1 335 11.8
2007-07-05 06:39:52 51°13.882 2°55.596 338.6 9.3 336 11.7
2007-07-05 06:39:57 51°13.894 2°55.587 339.3 9.4 336 11.9
2007-07-05 06:40:02 51°13.906 2°55.579 339.3 9.5 336 12
2007-07-05 06:40:07 51°13.918 2°55.571 339.4 9.6 337 11.9
2007-07-05 06:40:12 51°13.931 2°55.562 340.4 9.7 336 12.1
2007-07-05 06:40:17 51°13.943 2°55.554 340.3 9.8 336 11.9
2007-07-05 06:40:22 51°13.956 2°55.545 339.3 9.8 337 11.9
2007-07-05 06:40:27 51°13.968 2°55.537 339.8 9.8 340 11.8
2007-07-05 06:40:32 51°13.981 2°55.529 341.8 9.9 339 11.7
2007-07-05 06:40:37 51°13.994 2°55.521 341.6 10 338 11.7
2007-07-05 06:40:42 51°14.007 2°55.512 340.1 10.1 337 11.7
2007-07-05 06:40:47 51°14.02 2°55.503 339.9 10.1 336 11.7
2007-07-05 06:40:52 51°14.032 2°55.494 339.5 10.1 335 11.6
2007-07-05 06:40:57 51°14.045 2°55.484 338.9 10.1 336 11.7
2007-07-05 06:41:02 51°14.058 2°55.476 339.1 10.1 335 11.6
2007-07-05 06:41:07 51°14.071 2°55.466 339.2 10.1 334 11.6
2007-07-05 06:41:12 51°14.083 2°55.456 338.5 10.1 334 11.6
2007-07-05 06:41:17 51°14.096 2°55.446 337.8 10.1 333 11.6
2007-07-05 06:41:23 51°14.11 2°55.434 336.9 10.1 332 11.6
2007-07-05 06:41:27 51°14.12 2°55.425 335.9 10 332 11.7
2007-07-05 06:41:32 51°14.132 2°55.414 335.5 10 331 -999
2007-07-05 06:41:37 51°14.144 2°55.403 334.1 10 330 11.7
2007-07-05 06:41:42 51°14.156 2°55.392 333.1 9.9 329 11.6
2007-07-05 06:41:47 51°14.168 2°55.381 332.6 10 329 -999
2007-07-05 06:41:52 51°14.18 2°55.369 332.3 9.9 326 11.7
2007-07-05 06:41:57 51°14.191 2°55.356 330.2 9.9 325 -999
2007-07-05 06:42:02 51°14.202 2°55.343 328.6 9.9 324 11.6
2007-07-05 06:42:07 51°14.213 2°55.331 327.6 9.9 324 -999
2007-07-05 06:42:12 51°14.224 2°55.317 327 9.9 322 11.7
2007-07-05 06:42:17 51°14.235 2°55.304 325.9 9.9 321 11.6
2007-07-05 06:42:22 51°14.245 2°55.289 324.4 9.9 318 11.8
2007-07-05 06:42:27 51°14.255 2°55.275 322.1 9.9 317 11.8
2007-07-05 06:42:32 51°14.265 2°55.259 320.5 10 316 -999
2007-07-05 06:42:37 51°14.275 2°55.243 319 10.2 315 11.7
2007-07-05 06:42:42 51°14.285 2°55.227 318 10.3 313 11.7
2007-07-05 06:42:47 51°14.295 2°55.21 316.9 10.4 314 11.6
2007-07-05 06:42:52 51°14.304 2°55.192 316.5 10.6 311 11.7
2007-07-05 06:42:57 51°14.314 2°55.174 314.7 10.8 310 11.6
2007-07-05 06:43:02 51°14.324 2°55.156 313.2 10.9 309 11.6
2007-07-05 06:43:07 51°14.334 2°55.137 312.8 11 310 11.8
2007-07-05 06:43:12 51°14.344 2°55.119 313.3 10.9 311 11.6
2007-07-05 06:43:17 51°14.353 2°55.101 314.4 11 311 12.1
2007-07-05 06:43:23 51°14.365 2°55.079 314.5 10.8 311 11.5
2007-07-05 06:43:27 51°14.373 2°55.065 314.3 10.8 311 12
2007-07-05 06:43:32 51°14.383 2°55.046 314.6 11.1 311 11.8
2007-07-05 06:43:37 51°14.393 2°55.028 314.7 11.1 311 11.5
2007-07-05 06:43:42 51°14.404 2°55.009 314.7 11 312 11.9
2007-07-05 06:43:47 51°14.415 2°54.991 315 11.3 315 11.9
2007-07-05 06:43:52 51°14.427 2°54.975 317.1 11.2 319 11.3
2007-07-05 06:43:57 51°14.439 2°54.96 319.8 11.4 323 11.7
2007-07-05 06:44:02 51°14.452 2°54.945 323.7 11.5 324 11.5
2007-07-05 06:44:07 51°14.465 2°54.929 326.6 11.7 323 11.3
2007-07-05 06:44:12 51°14.478 2°54.914 326.9 12 324 11.2
2007-07-05 06:44:17 51°14.491 2°54.898 327 12.2 323 10.8
2007-07-05 06:44:22 51°14.505 2°54.882 326.4 12.1 323 10.6
2007-07-05 06:44:27 51°14.519 2°54.866 326 12.1 324 10.3
2007-07-05 06:44:32 51°14.532 2°54.851 327.3 12.2 325 10.8
2007-07-05 06:44:37 51°14.546 2°54.835 327.8 12.2 325 10.2
2007-07-05 06:44:42 51°14.56 2°54.819 328 12.3 325 10.2
2007-07-05 06:44:47 51°14.574 2°54.804 327.2 12.2 326 10.6
2007-07-05 06:44:52 51°14.588 2°54.788 327.1 12.3 324 10.5
2007-07-05 06:44:57 51°14.601 2°54.772 327.3 11.5 325 10
2007-07-05 06:45:02 51°14.614 2°54.758 327.2 11.5 322 9.7
2007-07-05 06:45:07 51°14.627 2°54.743 326.4 11.5 325 10.6
2007-07-05 06:45:12 51°14.64 2°54.728 326.5 11.7 324 9.9
2007-07-05 06:45:17 51°14.654 2°54.714 326.7 11.6 327 9.7
2007-07-05 06:45:22 51°14.667 2°54.7 327.3 11.7 328 10.3
2007-07-05 06:45:27 51°14.681 2°54.686 328.7 11.8 326 10.4
2007-07-05 06:45:32 51°14.694 2°54.671 328.7 11.9 326 10
2007-07-05 06:45:37 51°14.708 2°54.657 328.6 11.7 327 10
2007-07-05 06:45:43 51°14.724 2°54.64 328.4 11.9 326 10.7
2007-07-05 06:45:47 51°14.736 2°54.628 328.7 12.1 326 11
2007-07-05 06:45:52 51°14.75 2°54.613 328.1 12.2 328 10.6
2007-07-05 06:45:57 51°14.764 2°54.6 328.3 11.7 328 10.2
2007-07-05 06:46:03 51°14.78 2°54.583 328.8 11.8 328 11.1
2007-07-05 06:46:07 51°14.791 2°54.571 328.7 12 327 10.8
2007-07-05 06:46:12 51°14.805 2°54.557 328.2 11.8 328 10.6
2007-07-05 06:46:17 51°14.819 2°54.543 328.9 11.8 328 -999
2007-07-05 06:46:22 51°14.832 2°54.528 329.9 11.6 326 10.3
2007-07-05 06:46:27 51°14.845 2°54.514 328.5 11.6 327 10.5
2007-07-05 06:46:32 51°14.859 2°54.501 328 11.5 327 -999
2007-07-05 06:46:37 51°14.872 2°54.486 328.7 11.7 326 10.4
2007-07-05 06:46:42 51°14.886 2°54.472 329 11.9 326 10.2
2007-07-05 06:46:47 51°14.9 2°54.458 328.9 11.9 327 10.1
2007-07-05 06:46:52 51°14.914 2°54.444 328.6 11.9 328 10.1
2007-07-05 06:46:57 51°14.927 2°54.429 329.6 12 327 9.7
2007-07-05 06:47:02 51°14.941 2°54.414 328.9 12 326 9.8
2007-07-05 06:47:07 51°14.955 2°54.399 328.7 12 327 9.6
2007-07-05 06:47:12 51°14.969 2°54.384 329 12.1 326 9.6
2007-07-05 06:47:17 51°14.983 2°54.37 328.7 12.2 327 9.5
2007-07-05 06:47:23 51°15 2°54.352 329.1 12.2 325 9.9
2007-07-05 06:47:27 51°15.011 2°54.341 328.7 12.2 329 9.4
2007-07-05 06:47:32 51°15.025 2°54.327 329 11.6 327 -999
2007-07-05 06:47:37 51°15.039 2°54.314 329.8 11.8 328 9.5
2007-07-05 06:47:43 51°15.055 2°54.296 329.7 11.9 326 9.3
2007-07-05 06:47:47 51°15.066 2°54.285 329.3 11.7 328 8.9
2007-07-05 06:47:52 51°15.079 2°54.272 329.1 11.2 328 9
2007-07-05 06:47:57 51°15.093 2°54.259 329.9 11.4 329 10.4
2007-07-05 06:48:03 51°15.109 2°54.242 329.7 11.4 327 9.3
2007-07-05 06:48:07 51°15.12 2°54.232 329.7 10.9 329 7.8
2007-07-05 06:48:12 51°15.132 2°54.219 329.4 11.2 329 4.3
2007-07-05 06:48:17 51°15.146 2°54.205 330.2 11.5 326 -999
2007-07-05 06:48:22 51°15.159 2°54.191 329.2 11.7 325 9.7
2007-07-05 06:48:27 51°15.173 2°54.177 328.4 11.8 327 9.4
2007-07-05 06:48:32 51°15.186 2°54.163 328.7 11.4 327 9.1
2007-07-05 06:48:37 51°15.2 2°54.15 328.7 11.5 330 4.7
2007-07-05 06:48:42 51°15.213 2°54.135 330.5 11.6 326 9.9
2007-07-05 06:48:47 51°15.226 2°54.121 329.2 11.7 327 10.2
2007-07-05 06:48:52 51°15.24 2°54.106 329.2 11.9 324 10.2
2007-07-05 06:48:57 51°15.254 2°54.091 328.9 12.1 327 10.4
2007-07-05 06:49:02 51°15.267 2°54.075 328.1 12.2 324 10.4
2007-07-05 06:49:07 51°15.281 2°54.061 328 12.2 328 10.7
2007-07-05 06:49:12 51°15.295 2°54.046 328.6 11.8 324 9.9
2007-07-05 06:49:17 51°15.308 2°54.032 329.1 12 326 10.3
2007-07-05 06:49:22 51°15.321 2°54.015 328.9 11.9 325 10.8
2007-07-05 06:49:27 51°15.335 2°54.001 328 11.9 323 10.5
2007-07-05 06:49:32 51°15.349 2°53.986 328.3 12 326 10.7
2007-07-05 06:49:37 51°15.362 2°53.97 328.4 12.1 325 10.5
2007-07-05 06:49:42 51°15.376 2°53.954 328.4 12.2 326 10.7
2007-07-05 06:49:47 51°15.39 2°53.939 328.5 12 325 10.3
2007-07-05 06:49:52 51°15.404 2°53.925 328.4 12 327 10.8
2007-07-05 06:49:57 51°15.418 2°53.909 328.7 12.2 326 10.8
2007-07-05 06:50:03 51°15.434 2°53.892 328.8 11.8 326 10.5
2007-07-05 06:50:07 51°15.445 2°53.882 329.3 11.8 328 11.4
2007-07-05 06:50:12 51°15.459 2°53.867 329.9 12 326 10.7
2007-07-05 06:50:17 51°15.472 2°53.853 329.8 11.5 327 10.3
2007-07-05 06:50:22 51°15.486 2°53.838 329.9 11.8 325 11.1
2007-07-05 06:50:27 51°15.5 2°53.823 329.3 11.7 326 10.4
2007-07-05 06:50:32 51°15.513 2°53.809 329.1 11.9 326 10.9
2007-07-05 06:50:37 51°15.527 2°53.795 328.9 12 327 10.8
2007-07-05 06:50:42 51°15.541 2°53.78 329.4 11.7 326 10.8
2007-07-05 06:50:47 51°15.554 2°53.766 329.5 11.8 327 11.6
2007-07-05 06:50:52 51°15.568 2°53.752 329.4 11.6 327 -999
2007-07-05 06:50:57 51°15.582 2°53.738 330.2 11.5 326 10.6
2007-07-05 06:51:02 51°15.595 2°53.725 330 11.7 328 11.4
2007-07-05 06:51:07 51°15.608 2°53.71 329.5 11.7 326 11.3
2007-07-05 06:51:12 51°15.622 2°53.696 329.4 11.7 326 10.9
2007-07-05 06:51:17 51°15.635 2°53.683 329.1 11.2 330 11.8
2007-07-05 06:51:22 51°15.648 2°53.671 329.7 10.7 331 -999
2007-07-05 06:51:27 51°15.661 2°53.659 331.6 10.5 331 -999
2007-07-05 06:51:33 51°15.675 2°53.644 330.9 10.7 326 -999
2007-07-05 06:51:37 51°15.685 2°53.634 329.5 11 326 11.3
2007-07-05 06:51:42 51°15.698 2°53.619 329 11.1 326 11
2007-07-05 06:51:47 51°15.711 2°53.606 329.9 11.1 326 11.1
2007-07-05 06:51:52 51°15.723 2°53.592 329.5 11.3 325 11.6
2007-07-05 06:51:57 51°15.737 2°53.577 329.3 11.2 326 11.6
2007-07-05 06:52:02 51°15.75 2°53.564 329.2 11.1 326 11.8
2007-07-05 06:52:07 51°15.763 2°53.55 328.8 11.5 327 12.2
2007-07-05 06:52:12 51°15.776 2°53.536 329.6 11.5 326 12.3
2007-07-05 06:52:17 51°15.789 2°53.523 329.5 11.1 329 11.3
2007-07-05 06:52:23 51°15.805 2°53.506 329.8 11.4 327 4.5
2007-07-05 06:52:27 51°15.816 2°53.495 330 11.6 326 11.9
2007-07-05 06:52:32 51°15.829 2°53.481 329.8 11.7 326 11.8
2007-07-05 06:52:37 51°15.843 2°53.466 329.4 11.9 325 12.2
2007-07-05 06:52:43 51°15.859 2°53.447 329.1 12.1 324 12.2
2007-07-05 06:52:47 51°15.87 2°53.434 328.3 12.3 324 12
2007-07-05 06:52:52 51°15.884 2°53.419 328.2 12.1 325 12
2007-07-05 06:52:57 51°15.897 2°53.404 328.5 12 326 12
2007-07-05 06:53:02 51°15.912 2°53.388 328.6 12.1 325 12.2
2007-07-05 06:53:07 51°15.925 2°53.374 328.7 12 326 12.3
2007-07-05 06:53:12 51°15.939 2°53.359 328.9 11.8 325 12.2
2007-07-05 06:53:17 51°15.953 2°53.344 328.8 12 327 12.5
2007-07-05 06:53:22 51°15.966 2°53.329 328.5 12.1 325 12.2
2007-07-05 06:53:27 51°15.98 2°53.314 329.3 12.1 324 12
2007-07-05 06:53:32 51°15.994 2°53.298 328.7 12.2 325 11.9
2007-07-05 06:53:37 51°16.007 2°53.283 328.6 12.2 325 12.1
2007-07-05 06:53:42 51°16.021 2°53.267 328.6 12.3 324 12.2
2007-07-05 06:53:47 51°16.035 2°53.252 328.4 12.4 326 12.1
2007-07-05 06:53:52 51°16.05 2°53.236 328.4 12.5 325 12.2
2007-07-05 06:53:57 51°16.064 2°53.22 329.1 12.3 324 12
2007-07-05 06:54:02 51°16.077 2°53.204 328.7 12.4 324 12.3
2007-07-05 06:54:07 51°16.092 2°53.188 328.5 12.4 324 12.3
2007-07-05 06:54:12 51°16.106 2°53.172 327.8 12.4 326 12.5
2007-07-05 06:54:17 51°16.12 2°53.157 328.6 12.4 327 12.4
2007-07-05 06:54:22 51°16.134 2°53.142 329.9 12.1 328 12.2
2007-07-05 06:54:27 51°16.149 2°53.129 330.8 12 329 12.3
2007-07-05 06:54:32 51°16.164 2°53.115 331.5 12.2 330 -999
2007-07-05 06:54:37 51°16.178 2°53.102 332.4 12.1 331 12.2
2007-07-05 06:54:43 51°16.197 2°53.087 334.1 12.4 333 12.7
2007-07-05 06:54:47 51°16.209 2°53.077 335.2 12.4 333 12.3
2007-07-05 06:54:52 51°16.224 2°53.065 336.4 12.5 333 12.3
2007-07-05 06:54:57 51°16.24 2°53.053 337 12.5 335 12.4
2007-07-05 06:55:02 51°16.255 2°53.042 337 11.9 337 12
2007-07-05 06:55:07 51°16.27 2°53.032 337.9 12.1 336 12.9
2007-07-05 06:55:12 51°16.285 2°53.021 338.9 12 335 12.6
2007-07-05 06:55:17 51°16.3 2°53.01 338.4 12 335 12.5
2007-07-05 06:55:22 51°16.315 2°52.998 337.8 12.1 334 12.6
2007-07-05 06:55:27 51°16.33 2°52.986 337.7 12.3 334 12.6
2007-07-05 06:55:32 51°16.346 2°52.974 337.5 12.2 334 12.4
2007-07-05 06:55:37 51°16.361 2°52.963 337.3 11.9 334 12.3
2007-07-05 06:55:42 51°16.376 2°52.952 337.3 11.7 335 12.7
2007-07-05 06:55:47 51°16.39 2°52.942 337.9 11.2 336 12.1
2007-07-05 06:55:53 51°16.407 2°52.931 337 11.2 338 -999
2007-07-05 06:55:57 51°16.419 2°52.924 338.8 11.1 337 -999
2007-07-05 06:56:02 51°16.432 2°52.913 338.3 11.1 335 11.8
2007-07-05 06:56:07 51°16.446 2°52.902 337.8 11.3 333 11.8
2007-07-05 06:56:12 51°16.461 2°52.89 337.6 11.5 333 12.1
2007-07-05 06:56:17 51°16.475 2°52.878 337.1 11.8 332 12.4
2007-07-05 06:56:22 51°16.49 2°52.866 336.6 11.9 334 12.2
2007-07-05 06:56:27 51°16.505 2°52.854 336.1 12 334 12.8
2007-07-05 06:56:32 51°16.52 2°52.843 336.9 12.1 334 12.6
2007-07-05 06:56:37 51°16.536 2°52.831 337.9 12.1 334 12.3
2007-07-05 06:56:42 51°16.551 2°52.819 337.2 12.3 333 12.4
2007-07-05 06:56:47 51°16.566 2°52.807 337.5 12.4 333 12.5
2007-07-05 06:56:52 51°16.581 2°52.794 337.3 12.4 332 12.3
2007-07-05 06:56:57 51°16.596 2°52.782 336.7 12.3 333 12.4
2007-07-05 06:57:03 51°16.615 2°52.768 336.5 12.4 336 12.5
2007-07-05 06:57:07 51°16.627 2°52.76 337.6 12.3 335 11.9
2007-07-05 06:57:12 51°16.643 2°52.748 338.2 12.4 335 11.7
2007-07-05 06:57:17 51°16.658 2°52.736 338.3 12.3 334 11.5
2007-07-05 06:57:22 51°16.674 2°52.724 337.5 12.3 334 11.6
2007-07-05 06:57:27 51°16.689 2°52.712 337.7 12.4 334 11.6
2007-07-05 06:57:32 51°16.705 2°52.7 337.4 12.5 335 11.5
2007-07-05 06:57:37 51°16.721 2°52.691 338.2 12.1 342 10.9
2007-07-05 06:57:42 51°16.737 2°52.683 341.4 12.2 346 11.2
2007-07-05 06:57:47 51°16.753 2°52.677 344.9 12.2 348 11.3
2007-07-05 06:57:52 51°16.77 2°52.673 348.1 12.1 348 10.2
2007-07-05 06:57:57 51°16.787 2°52.667 351.8 11.9 347 9.5
2007-07-05 06:58:02 51°16.803 2°52.664 351.5 11.6 355 9.3
2007-07-05 06:58:07 51°16.819 2°52.661 352.7 11.9 354 -999
2007-07-05 06:58:12 51°16.835 2°52.658 355.3 11.9 349 -999
2007-07-05 06:58:17 51°16.852 2°52.653 354.3 11.9 351 9.2
2007-07-05 06:58:22 51°16.868 2°52.648 353.8 12.1 351 9.8
2007-07-05 06:58:27 51°16.884 2°52.645 353.1 11.6 352 -999
2007-07-05 06:58:32 51°16.9 2°52.641 353.6 11.5 352 9.9
2007-07-05 06:58:38 51°16.919 2°52.637 354.6 11.8 351 -999
2007-07-05 06:58:42 51°16.932 2°52.635 355.6 11.8 351 -999
2007-07-05 06:58:47 51°16.948 2°52.631 354.4 11.8 352 10.5
2007-07-05 06:58:52 51°16.965 2°52.628 354.2 12 354 10.2
2007-07-05 06:58:57 51°16.981 2°52.623 355.3 11.9 351 10.6
2007-07-05 06:59:03 51°17.001 2°52.619 354.9 12 351 10.8
2007-07-05 06:59:07 51°17.014 2°52.615 354.1 12.2 351 10.8
2007-07-05 06:59:12 51°17.031 2°52.61 354.5 12.2 349 10.9
2007-07-05 06:59:17 51°17.048 2°52.606 353.2 12.2 351 11.1
2007-07-05 06:59:23 51°17.068 2°52.6 353.6 12.3 349 10.8
2007-07-05 06:59:27 51°17.082 2°52.597 353.4 12.3 352 10.2
2007-07-05 06:59:32 51°17.099 2°52.593 354.4 12.3 350 10.3
2007-07-05 06:59:37 51°17.115 2°52.588 353.5 12.2 350 10.3
2007-07-05 06:59:42 51°17.132 2°52.584 354.1 12.2 348 10.4
2007-07-05 06:59:47 51°17.149 2°52.579 353.4 12.4 350 10.3
2007-07-05 06:59:52 51°17.166 2°52.574 353.8 12.5 350 10.2
2007-07-05 06:59:57 51°17.182 2°52.57 353.6 12.1 353 9.9
2007-07-05 07:00:02 51°17.199 2°52.567 354.2 12.2 353 -999
2007-07-05 07:00:07 51°17.216 2°52.563 355.5 12.2 351 10
2007-07-05 07:00:12 51°17.232 2°52.558 355.6 12.3 350 10.2
2007-07-05 07:00:17 51°17.249 2°52.553 354.1 12.4 350 10.3
2007-07-05 07:00:22 51°17.266 2°52.548 354.1 12.5 347 10.2
2007-07-05 07:00:27 51°17.283 2°52.543 353.6 12.5 350 10.4
2007-07-05 07:00:32 51°17.3 2°52.538 353.5 12.6 349 10.7
2007-07-05 07:00:37 51°17.318 2°52.533 353.7 12.7 352 10.5
2007-07-05 07:00:42 51°17.335 2°52.529 355 12.7 349 10.8
2007-07-05 07:00:47 51°17.352 2°52.525 354.1 12.7 352 11
2007-07-05 07:00:52 51°17.37 2°52.519 354.9 12.7 348 10.8
2007-07-05 07:00:57 51°17.387 2°52.515 353.6 12.7 351 10.9
2007-07-05 07:01:02 51°17.404 2°52.51 353.5 12.8 352 11.1
2007-07-05 07:01:07 51°17.422 2°52.505 354.4 12.6 349 11.2
2007-07-05 07:01:12 51°17.439 2°52.501 353.9 12.4 351 10.6
2007-07-05 07:01:17 51°17.456 2°52.496 354.4 12.4 350 11.2
2007-07-05 07:01:22 51°17.473 2°52.492 354 12.6 351 10.8
2007-07-05 07:01:27 51°17.49 2°52.488 354.6 12.5 352 10.4
2007-07-05 07:01:32 51°17.507 2°52.484 354.3 12.2 352 9.9
2007-07-05 07:01:37 51°17.524 2°52.479 355 12.4 349 10.4
2007-07-05 07:01:43 51°17.544 2°52.473 353.8 12.1 352 10
2007-07-05 07:01:47 51°17.557 2°52.469 354.3 12.1 349 10.7
2007-07-05 07:01:52 51°17.574 2°52.464 353.4 12.3 349 11.1
2007-07-05 07:01:57 51°17.591 2°52.462 353.1 12.5 355 10.9
2007-07-05 07:02:02 51°17.608 2°52.458 355.6 12.4 352 10.4
2007-07-05 07:02:07 51°17.625 2°52.457 358 12.5 356 10.9
2007-07-05 07:02:12 51°17.642 2°52.452 358.6 12.5 351 11.1
2007-07-05 07:02:17 51°17.66 2°52.45 357.4 12.6 354 11.3
2007-07-05 07:02:22 51°17.677 2°52.446 358 12.7 354 11.2
2007-07-05 07:02:27 51°17.695 2°52.444 357.8 12.6 354 11.6
2007-07-05 07:02:32 51°17.712 2°52.442 358.6 12.7 355 11
2007-07-05 07:02:37 51°17.729 2°52.438 358.6 12.5 354 10.9
2007-07-05 07:02:42 51°17.747 2°52.438 358.2 12.7 1 11.1
2007-07-05 07:02:47 51°17.764 2°52.438 1 12.7 -999 11.2
2007-07-05 07:02:52 51°17.782 2°52.441 4.3 12.8 4 10.8
2007-07-05 07:02:57 51°17.8 2°52.443 7.5 12.6 4 10.4
2007-07-05 07:03:03 51°17.82 2°52.447 8.4 12.6 5 10.2
2007-07-05 07:03:07 51°17.834 2°52.45 10.7 12.5 7 10.4
2007-07-05 07:03:12 51°17.852 2°52.454 11.6 12.6 7 10.4
2007-07-05 07:03:17 51°17.869 2°52.459 12.4 12.8 8 10.5
2007-07-05 07:03:22 51°17.886 2°52.464 12.8 12.6 10 10.8
2007-07-05 07:03:27 51°17.904 2°52.47 13.4 12.7 12 10.9
2007-07-05 07:03:32 51°17.921 2°52.473 15.3 12.6 8 11.4
2007-07-05 07:03:37 51°17.938 2°52.48 12.4 12.6 15 11.6
2007-07-05 07:03:43 51°17.959 2°52.489 17.3 13 13 10.7
2007-07-05 07:03:47 51°17.973 2°52.495 19 12.7 16 10.9
2007-07-05 07:03:52 51°17.989 2°52.504 19 12.9 19 10.8
2007-07-05 07:03:57 51°18.007 2°52.512 21.8 12.9 16 11.3
2007-07-05 07:04:03 51°18.026 2°52.525 21.5 12.8 24 11
2007-07-05 07:04:07 51°18.04 2°52.534 25.4 13.1 24 10.7
2007-07-05 07:04:12 51°18.055 2°52.547 27.4 12.8 27 11.2
2007-07-05 07:04:17 51°18.071 2°52.56 30 12.4 31 11.7
2007-07-05 07:04:22 51°18.086 2°52.575 34.6 13.2 30 11.1
2007-07-05 07:04:27 51°18.102 2°52.59 35.8 13.3 29 10.8
2007-07-05 07:04:32 51°18.117 2°52.605 34.4 12.7 33 11
2007-07-05 07:04:37 51°18.13 2°52.622 35.4 12.5 42 11.6
2007-07-05 07:04:42 51°18.144 2°52.642 40.8 13.4 42 11.4
2007-07-05 07:04:47 51°18.159 2°52.66 46.4 13.2 38 11.2
2007-07-05 07:04:52 51°18.17 2°52.681 44.6 12.6 49 11.2
2007-07-05 07:04:57 51°18.182 2°52.703 50.7 12.9 44 11.3
2007-07-05 07:05:02 51°18.195 2°52.722 51.5 12.6 52 11.4
2007-07-05 07:05:07 51°18.205 2°52.745 50.6 12.7 51 11.4
2007-07-05 07:05:12 51°18.214 2°52.769 55.8 12.9 60 11.3
2007-07-05 07:05:17 51°18.223 2°52.794 61.1 13 53 11.5
2007-07-05 07:05:23 51°18.233 2°52.822 61.6 11.9 68 11.5
2007-07-05 07:05:27 51°18.238 2°52.844 63.9 12.9 70 11.5
2007-07-05 07:05:32 51°18.246 2°52.87 73.1 12.9 64 11.4
2007-07-05 07:05:37 51°18.252 2°52.896 70.1 12.8 75 11.6
2007-07-05 07:05:42 51°18.256 2°52.925 76.3 13.3 69 11.4
2007-07-05 07:05:47 51°18.266 2°52.948 74.7 12.2 62 11.9
2007-07-05 07:05:52 51°18.267 2°52.977 70.6 12.9 81 11.6
2007-07-05 07:05:57 51°18.277 2°53.003 80.7 13.5 62 11.4
2007-07-05 07:06:03 51°18.283 2°53.034 72.8 12.3 74 11.4
2007-07-05 07:06:07 51°18.287 2°53.055 73 12.3 71 11.5
2007-07-05 07:06:12 51°18.295 2°53.082 78.7 13.2 68 11.5
2007-07-05 07:06:17 51°18.303 2°53.109 74.1 13.7 62 11.5
2007-07-05 07:06:23 51°18.314 2°53.136 68.7 11.9 63 11.4
2007-07-05 07:06:27 51°18.318 2°53.158 66.1 12.7 72 11.5
2007-07-05 07:06:32 51°18.328 2°53.183 73.8 13.3 58 11.4
2007-07-05 07:06:37 51°18.335 2°53.208 68.2 12.6 66 11.3
2007-07-05 07:06:42 51°18.344 2°53.233 67.7 12.9 62 11.5
2007-07-05 07:06:47 51°18.35 2°53.26 69.1 13 64 11.3
2007-07-05 07:06:52 51°18.36 2°53.284 70.4 12.8 60 11.7
2007-07-05 07:06:57 51°18.367 2°53.31 67.5 12.8 59 11.6
2007-07-05 07:07:02 51°18.375 2°53.336 66.9 13.4 71 11.6
2007-07-05 07:07:07 51°18.384 2°53.361 70.7 13.1 55 11.6
2007-07-05 07:07:12 51°18.393 2°53.384 65.8 12.3 60 11.6
2007-07-05 07:07:17 51°18.402 2°53.411 63.1 13.3 54 11.3
2007-07-05 07:07:22 51°18.412 2°53.434 66 13 60 11.1
2007-07-05 07:07:27 51°18.421 2°53.459 63.1 12.7 61 11.4
2007-07-05 07:07:32 51°18.429 2°53.483 65.2 12.6 58 11.5
2007-07-05 07:07:37 51°18.439 2°53.506 63 12.3 61 11.4
2007-07-05 07:07:42 51°18.447 2°53.53 63.3 12.6 61 11.8
2007-07-05 07:07:47 51°18.455 2°53.558 65.9 13.5 67 11.5
2007-07-05 07:07:52 51°18.465 2°53.582 69.3 13.2 56 11.7
2007-07-05 07:07:57 51°18.471 2°53.607 65.3 12.4 69 11.7
2007-07-05 07:08:02 51°18.479 2°53.632 70 12.6 61 11.7
2007-07-05 07:08:07 51°18.488 2°53.656 70.4 12.7 60 11.7
2007-07-05 07:08:12 51°18.495 2°53.682 66.8 12.5 65 11.6
2007-07-05 07:08:17 51°18.503 2°53.707 68.7 12.9 63 11.6
2007-07-05 07:08:23 51°18.513 2°53.738 70.3 13.1 61 11.4
2007-07-05 07:08:27 51°18.52 2°53.757 68.4 12.5 62 11.6
2007-07-05 07:08:32 51°18.526 2°53.784 67.3 12.6 67 11.6
2007-07-05 07:08:37 51°18.536 2°53.806 70.9 12.6 57 11.7
2007-07-05 07:08:42 51°18.541 2°53.835 66.7 13.5 69 11.4
2007-07-05 07:08:47 51°18.553 2°53.858 71.9 13.3 54 11.4
2007-07-05 07:08:52 51°18.56 2°53.883 65.3 12.4 67 11.5
2007-07-05 07:08:57 51°18.568 2°53.909 67.5 13.2 60 11.4
2007-07-05 07:09:02 51°18.576 2°53.935 69.6 12.8 63 11.2
2007-07-05 07:09:07 51°18.584 2°53.958 67.3 12.2 68 11.5
2007-07-05 07:09:12 51°18.59 2°53.986 69.3 13.3 68 11.5
2007-07-05 07:09:17 51°18.6 2°54.012 73.3 13.4 58 11.3
2007-07-05 07:09:22 51°18.608 2°54.037 66.8 12.5 65 11.3
2007-07-05 07:09:27 51°18.616 2°54.061 67.3 12.5 64 11.7
2007-07-05 07:09:32 51°18.623 2°54.089 68.6 13.5 63 11.3
2007-07-05 07:09:37 51°18.634 2°54.111 70.4 12.5 57 11.5
2007-07-05 07:09:42 51°18.639 2°54.138 63.6 12.9 72 11.4
2007-07-05 07:09:47 51°18.648 2°54.163 71.5 13 59 11.5
2007-07-05 07:09:52 51°18.654 2°54.189 68.5 12.7 71 11.4
2007-07-05 07:09:57 51°18.662 2°54.215 70.7 12.7 61 11.5
2007-07-05 07:10:02 51°18.668 2°54.242 72.8 13.1 73 11.6
2007-07-05 07:10:07 51°18.678 2°54.265 71.1 12.8 55 11.7
2007-07-05 07:10:12 51°18.684 2°54.291 66.5 12.5 68 11.6
2007-07-05 07:10:17 51°18.693 2°54.317 69.5 13 59 11.6
2007-07-05 07:10:22 51°18.701 2°54.342 69.9 12.8 68 11.5
2007-07-05 07:10:27 51°18.707 2°54.369 69 12.9 68 11.4
2007-07-05 07:10:32 51°18.717 2°54.391 71.4 12.2 59 11.8
2007-07-05 07:10:37 51°18.722 2°54.42 66 13.3 67 11.3
2007-07-05 07:10:43 51°18.735 2°54.447 71.1 12.4 58 11.4
2007-07-05 07:10:47 51°18.736 2°54.47 64.1 13.1 73 11
2007-07-05 07:10:52 51°18.747 2°54.495 75.1 13.5 59 11
2007-07-05 07:10:57 51°18.753 2°54.52 69.1 12.5 68 11.1
2007-07-05 07:11:03 51°18.76 2°54.553 69.6 13.1 68 11.4
2007-07-05 07:11:07 51°18.769 2°54.572 75.4 13 57 11.7
2007-07-05 07:11:12 51°18.776 2°54.597 66.6 12.7 65 11.9
2007-07-05 07:11:17 51°18.785 2°54.622 67.2 13 60 12
2007-07-05 07:11:22 51°18.791 2°54.649 68 13.1 70 12
2007-07-05 07:11:27 51°18.8 2°54.675 70.6 13.3 59 12
2007-07-05 07:11:32 51°18.809 2°54.699 69.3 12.9 60 11.8
2007-07-05 07:11:37 51°18.817 2°54.724 65.6 12.5 63 11.8
2007-07-05 07:11:42 51°18.825 2°54.749 66.7 12.7 63 11.7
2007-07-05 07:11:47 51°18.834 2°54.774 67.7 12.8 62 11.6
2007-07-05 07:11:52 51°18.841 2°54.801 68.1 13.1 65 11.5
2007-07-05 07:11:57 51°18.849 2°54.826 70.6 12.8 66 11.6
2007-07-05 07:12:02 51°18.855 2°54.851 69.6 12.1 68 11.7
2007-07-05 07:12:07 51°18.86 2°54.879 70.8 13.1 74 11.4
2007-07-05 07:12:12 51°18.871 2°54.902 75.2 13 54 11.4
2007-07-05 07:12:17 51°18.876 2°54.928 66.2 12.5 73 11.4
2007-07-05 07:12:22 51°18.884 2°54.954 71.2 12.9 63 11.2
2007-07-05 07:12:27 51°18.89 2°54.981 71.8 12.9 71 11.5
2007-07-05 07:12:32 51°18.898 2°55.006 72.5 12.8 63 11.5
2007-07-05 07:12:37 51°18.906 2°55.03 70.3 12.3 68 11.5
2007-07-05 07:12:42 51°18.912 2°55.057 69.6 12.9 66 11.4
2007-07-05 07:12:47 51°18.92 2°55.083 72.5 13.1 65 11.4
2007-07-05 07:12:52 51°18.926 2°55.11 71.6 12.9 68 11.4
2007-07-05 07:12:57 51°18.933 2°55.135 72.5 12.7 66 11.3
2007-07-05 07:13:03 51°18.941 2°55.167 71.8 12.9 68 11.5
2007-07-05 07:13:07 51°18.948 2°55.186 71.4 12.3 65 11.4
2007-07-05 07:13:12 51°18.952 2°55.214 70.7 12.9 75 11.3
2007-07-05 07:13:17 51°18.961 2°55.241 76.8 13.7 64 11.3
2007-07-05 07:13:22 51°18.969 2°55.267 71.6 12.9 62 11.3
2007-07-05 07:13:27 51°18.976 2°55.292 67.9 12.5 69 11.5
2007-07-05 07:13:32 51°18.984 2°55.318 71.6 12.7 63 11.5
2007-07-05 07:13:37 51°18.99 2°55.344 69.8 13.1 69 11.5
2007-07-05 07:13:42 51°18.998 2°55.371 70.8 13.2 63 11.3
2007-07-05 07:13:47 51°19.005 2°55.398 72 13.1 67 11.5
2007-07-05 07:13:52 51°19.013 2°55.424 71.4 13.2 63 11.4
2007-07-05 07:13:57 51°19.022 2°55.448 69 12.5 66 11.5
2007-07-05 07:14:02 51°19.029 2°55.474 67.7 12.6 62 11.5
2007-07-05 07:14:07 51°19.036 2°55.5 69.8 13 67 11.4
2007-07-05 07:14:12 51°19.045 2°55.525 70.4 13 63 11.1
2007-07-05 07:14:17 51°19.05 2°55.553 69.4 13.1 71 11.2
2007-07-05 07:14:22 51°19.059 2°55.578 72.8 12.8 61 11.2
2007-07-05 07:14:27 51°19.065 2°55.606 70.8 13.2 72 11
2007-07-05 07:14:32 51°19.075 2°55.628 72.2 12.8 54 11.2
2007-07-05 07:14:38 51°19.081 2°55.659 65.5 12.3 74 -999
2007-07-05 07:14:42 51°19.089 2°55.679 70.1 12.9 61 11.2
2007-07-05 07:14:47 51°19.094 2°55.706 71.3 13 71 10.9
2007-07-05 07:14:52 51°19.102 2°55.733 72.9 13.3 65 11
2007-07-05 07:14:57 51°19.109 2°55.759 72.7 12.8 64 11
2007-07-05 07:15:03 51°19.119 2°55.787 68.9 12.1 63 11.2
2007-07-05 07:15:07 51°19.123 2°55.81 68.1 13.3 72 11.1
2007-07-05 07:15:12 51°19.132 2°55.837 74.1 13.8 62 10.8
2007-07-05 07:15:17 51°19.141 2°55.862 69.6 12.6 67 11
2007-07-05 07:15:23 51°19.148 2°55.893 67.9 12.6 66 11
2007-07-05 07:15:27 51°19.154 2°55.914 72.9 12.6 68 11.1
2007-07-05 07:15:32 51°19.16 2°55.941 73.2 13.1 68 11.1
2007-07-05 07:15:37 51°19.169 2°55.964 72.2 12.3 62 11.4
2007-07-05 07:15:43 51°19.175 2°55.997 67 13.1 71 11
2007-07-05 07:15:47 51°19.182 2°56.019 74 13.4 63 11
2007-07-05 07:15:52 51°19.19 2°56.043 70.6 12.5 62 10.8
2007-07-05 07:15:57 51°19.195 2°56.069 68.9 12.3 73 10.9
2007-07-05 07:16:02 51°19.202 2°56.096 74.7 13.1 67 11
2007-07-05 07:16:07 51°19.21 2°56.122 73.4 12.8 64 11
2007-07-05 07:16:12 51°19.217 2°56.147 69.2 12.3 66 11
2007-07-05 07:16:17 51°19.223 2°56.172 70.8 12.8 69 11.2
2007-07-05 07:16:22 51°19.231 2°56.2 73.8 13.6 65 11.2
2007-07-05 07:16:27 51°19.239 2°56.225 69.8 12.7 62 11.1
2007-07-05 07:16:32 51°19.244 2°56.249 67.4 11.9 75 -999
2007-07-05 07:16:37 51°19.25 2°56.278 75.8 14 69 11
2007-07-05 07:16:42 51°19.26 2°56.304 75.3 13 58 10.8
2007-07-05 07:16:47 51°19.265 2°56.328 66.6 11.7 72 11.2
2007-07-05 07:16:52 51°19.271 2°56.354 72.5 13 64 11
2007-07-05 07:16:57 51°19.28 2°56.38 75 13 64 11
2007-07-05 07:17:02 51°19.287 2°56.406 69.1 12.8 67 10.9
2007-07-05 07:17:07 51°19.295 2°56.431 70.6 12.8 64 10.9
2007-07-05 07:17:12 51°19.302 2°56.456 70.2 12.3 66 11.1
2007-07-05 07:17:17 51°19.308 2°56.482 70 13 66 11.2
2007-07-05 07:17:23 51°19.318 2°56.515 73 13.5 64 11.3
2007-07-05 07:17:27 51°19.326 2°56.533 69.2 12.6 60 11.2
2007-07-05 07:17:32 51°19.331 2°56.56 66 12.5 73 11
2007-07-05 07:17:37 51°19.34 2°56.583 72.5 12.5 58 10.9
2007-07-05 07:17:43 51°19.347 2°56.616 67.5 13.1 72 10.8
2007-07-05 07:17:47 51°19.355 2°56.635 71.2 12.9 60 10.8
2007-07-05 07:17:52 51°19.363 2°56.659 67.5 12 64 10.9
2007-07-05 07:17:57 51°19.367 2°56.686 66.7 12.6 67 10.6
2007-07-05 07:18:02 51°19.376 2°56.71 72.5 12.4 68 10.7
2007-07-05 07:18:07 51°19.381 2°56.737 69.8 12.9 70 10.8
2007-07-05 07:18:12 51°19.388 2°56.765 75.6 13.5 69 10.5
2007-07-05 07:18:17 51°19.397 2°56.789 72.6 12.8 59 10.8
2007-07-05 07:18:22 51°19.402 2°56.815 66.7 12.4 76 10.8
2007-07-05 07:18:27 51°19.407 2°56.842 72.1 12.9 69 10.6
2007-07-05 07:18:32 51°19.416 2°56.865 75.2 12.1 65 10.6
2007-07-05 07:18:37 51°19.422 2°56.892 70.3 13.2 65 10.5
2007-07-05 07:18:42 51°19.432 2°56.917 71.7 13.2 59 10.6
2007-07-05 07:18:47 51°19.438 2°56.943 66.2 12.5 67 10.5
2007-07-05 07:18:52 51°19.445 2°56.969 69.2 12.7 67 10.8
2007-07-05 07:18:57 51°19.453 2°56.994 70.8 12.9 62 10.8
2007-07-05 07:19:02 51°19.461 2°57.019 68.4 12.6 66 10.8
2007-07-05 07:19:07 51°19.468 2°57.045 69.2 12.8 67 11
2007-07-05 07:19:12 51°19.476 2°57.071 70.1 12.8 64 10.9
2007-07-05 07:19:17 51°19.482 2°57.097 69.7 12.8 73 11
2007-07-05 07:19:23 51°19.491 2°57.128 73.1 13 61 10.8
2007-07-05 07:19:27 51°19.498 2°57.148 70.4 12.7 62 10.8
2007-07-05 07:19:32 51°19.504 2°57.174 67.2 12.8 68 10.7
2007-07-05 07:19:37 51°19.513 2°57.198 70.2 12.6 63 10.8
2007-07-05 07:19:43 51°19.52 2°57.231 70 13 66 10.7
2007-07-05 07:19:47 51°19.527 2°57.251 72.5 12.9 62 10.7
2007-07-05 07:19:52 51°19.534 2°57.276 69.4 12.5 65 10.7
2007-07-05 07:19:57 51°19.54 2°57.303 69.2 12.7 70 10.7
2007-07-05 07:20:02 51°19.549 2°57.328 71.7 13 59 10.7
2007-07-05 07:20:07 51°19.555 2°57.356 68.6 13.1 71 10.4
2007-07-05 07:20:12 51°19.564 2°57.379 69.8 12.4 60 10.5
2007-07-05 07:20:17 51°19.567 2°57.407 68 12.5 69 10.2
2007-07-05 07:20:22 51°19.577 2°57.43 75.7 12.5 64 10.2
2007-07-05 07:20:27 51°19.583 2°57.456 69.3 12.8 66 10.2
2007-07-05 07:20:32 51°19.591 2°57.482 69.8 12.9 65 10.4
2007-07-05 07:20:37 51°19.6 2°57.505 69 12.1 60 10.7
2007-07-05 07:20:42 51°19.605 2°57.531 67.3 12.3 68 10.7
2007-07-05 07:20:47 51°19.614 2°57.556 70 12.9 62 10.7
2007-07-05 07:20:52 51°19.62 2°57.584 69.3 13.3 70 10.6
2007-07-05 07:20:57 51°19.629 2°57.607 70.6 12.2 60 10.8
2007-07-05 07:21:02 51°19.634 2°57.632 68 12.3 72 10.9
2007-07-05 07:21:07 51°19.643 2°57.657 71.2 12.6 60 10.8
2007-07-05 07:21:12 51°19.65 2°57.683 68.4 12.8 68 10.6
2007-07-05 07:21:17 51°19.659 2°57.708 69.7 12.9 58 10.5
2007-07-05 07:21:22 51°19.664 2°57.734 67.7 12.5 72 10.5
2007-07-05 07:21:27 51°19.671 2°57.76 71.1 12.7 66 10.6
2007-07-05 07:21:32 51°19.679 2°57.784 71.3 12.3 66 10.6
2007-07-05 07:21:37 51°19.685 2°57.81 70.5 12.6 67 10.6
2007-07-05 07:21:43 51°19.695 2°57.842 71.4 13.4 64 10.6
2007-07-05 07:21:47 51°19.701 2°57.862 68.6 12.9 65 10.3
2007-07-05 07:21:52 51°19.707 2°57.886 68.3 11.6 70 10.6
2007-07-05 07:21:57 51°19.712 2°57.913 73.3 12.8 68 10.5
2007-07-05 07:22:03 51°19.722 2°57.944 75.9 13.1 62 10.4
2007-07-05 07:22:07 51°19.728 2°57.963 68.5 12.5 64 10.4
2007-07-05 07:22:12 51°19.735 2°57.989 68 12.6 69 10.5
2007-07-05 07:22:17 51°19.742 2°58.015 71.1 12.9 63 10.5
2007-07-05 07:22:23 51°19.749 2°58.046 69.5 12.7 72 10.5
2007-07-05 07:22:27 51°19.755 2°58.068 72.2 13 68 10.6
2007-07-05 07:22:32 51°19.763 2°58.093 73.3 12.6 64 10.4
2007-07-05 07:22:37 51°19.769 2°58.117 70 12.3 71 10.5
2007-07-05 07:22:42 51°19.775 2°58.145 70.9 13.2 67 10.4
2007-07-05 07:22:47 51°19.784 2°58.17 73.3 12.7 63 10.6
2007-07-05 07:22:52 51°19.789 2°58.196 68.2 12.4 71 10.5
2007-07-05 07:22:57 51°19.798 2°58.221 71.6 12.7 63 10.5
2007-07-05 07:23:02 51°19.804 2°58.248 70.6 13.1 70 10.5
2007-07-05 07:23:07 51°19.812 2°58.273 70 12.4 61 10.5
2007-07-05 07:23:12 51°19.817 2°58.298 68.2 12.2 73 10.7
2007-07-05 07:23:17 51°19.825 2°58.325 73.4 13.2 63 10.5
2007-07-05 07:23:23 51°19.835 2°58.354 70.6 12.8 60 10.3
2007-07-05 07:23:27 51°19.841 2°58.374 66.3 12.3 66 10.4
2007-07-05 07:23:32 51°19.848 2°58.4 68.9 12.6 66 10.6
2007-07-05 07:23:37 51°19.855 2°58.426 70.7 12.6 65 10.4
2007-07-05 07:23:42 51°19.862 2°58.45 69.8 12.2 67 10.7
2007-07-05 07:23:47 51°19.869 2°58.476 70.7 12.9 68 10.5
2007-07-05 07:23:52 51°19.878 2°58.501 71 13 60 10.6
2007-07-05 07:23:58 51°19.884 2°58.533 67 12.4 72 10.5
2007-07-05 07:24:03 51°19.893 2°58.556 72.2 12.3 62 10.7
2007-07-05 07:24:07 51°19.896 2°58.578 70 12.6 75 10.5
2007-07-05 07:24:12 51°19.904 2°58.603 73.5 12.8 62 10.7
2007-07-05 07:24:17 51°19.909 2°58.631 71.3 13.2 73 10.4
2007-07-05 07:24:23 51°19.92 2°58.66 74.9 12.8 60 10.6
2007-07-05 07:24:27 51°19.924 2°58.683 68.8 12.9 72 10.4
2007-07-05 07:24:32 51°19.934 2°58.707 71.1 12.9 57 10.4
2007-07-05 07:24:37 51°19.937 2°58.735 68.1 13 75 10.2
2007-07-05 07:24:42 51°19.948 2°58.758 72.7 12.4 60 10.7
2007-07-05 07:24:47 51°19.952 2°58.785 67.5 12.7 74 10.4
2007-07-05 07:24:52 51°19.96 2°58.811 73.2 13.2 64 10.3
2007-07-05 07:24:57 51°19.968 2°58.836 71.4 12.7 68 10.5
2007-07-05 07:25:02 51°19.973 2°58.864 68.8 13.1 66 10.3
2007-07-05 07:25:07 51°19.983 2°58.887 72.3 12.3 62 10.4
2007-07-05 07:25:12 51°19.988 2°58.913 66.2 12.1 71 10.4
2007-07-05 07:25:17 51°19.994 2°58.94 70.5 13.1 69 10.4
2007-07-05 07:25:22 51°20.004 2°58.965 73.7 13.2 60 10.5
2007-07-05 07:25:27 51°20.012 2°58.99 66.3 12.8 62 10.5
2007-07-05 07:25:32 51°20.019 2°59.017 66.8 13 67 10.4
2007-07-05 07:25:37 51°20.028 2°59.042 70.5 12.6 58 10.5
2007-07-05 07:25:43 51°20.035 2°59.071 65.6 12 70 10.7
2007-07-05 07:25:47 51°20.042 2°59.092 66.7 13 64 10.6
2007-07-05 07:25:52 51°20.05 2°59.119 69.8 13.4 64 10.2
2007-07-05 07:25:57 51°20.058 2°59.144 68.9 12.8 67 10.2
2007-07-05 07:26:02 51°20.065 2°59.171 69.1 13 65 10.4
2007-07-05 07:26:07 51°20.073 2°59.195 70 12.6 61 10.3
2007-07-05 07:26:12 51°20.08 2°59.221 67.1 12.4 69 10.6
2007-07-05 07:26:17 51°20.087 2°59.249 70.1 13.5 65 10.3
2007-07-05 07:26:23 51°20.098 2°59.278 72.1 12.7 62 10.3
2007-07-05 07:26:27 51°20.102 2°59.299 65.2 12.7 69 10.3
2007-07-05 07:26:32 51°20.111 2°59.324 70 12.7 62 10.3
2007-07-05 07:26:37 51°20.116 2°59.351 68.6 13 72 10.4
2007-07-05 07:26:43 51°20.127 2°59.38 71 12.7 58 10.4
2007-07-05 07:26:47 51°20.13 2°59.402 67.8 12.6 75 10.3
2007-07-05 07:26:52 51°20.139 2°59.429 72.3 13.5 63 10.2
2007-07-05 07:26:57 51°20.147 2°59.454 72.5 12.8 62 10.2
2007-07-05 07:27:02 51°20.154 2°59.479 66.3 12.2 64 10.4
2007-07-05 07:27:07 51°20.162 2°59.503 69.2 12.8 64 10.4
2007-07-05 07:27:12 51°20.17 2°59.529 68.2 13 63 10.2
2007-07-05 07:27:17 51°20.177 2°59.555 67.6 12.6 68 10.3
2007-07-05 07:27:22 51°20.183 2°59.581 68.6 12.8 65 10.5
2007-07-05 07:27:27 51°20.192 2°59.606 70.8 12.6 65 10.4
2007-07-05 07:27:32 51°20.198 2°59.632 68.5 12.3 69 10.4
2007-07-05 07:27:37 51°20.203 2°59.658 70.8 12.6 70 10.4
2007-07-05 07:27:42 51°20.211 2°59.683 74.2 12.9 65 10.4
2007-07-05 07:27:47 51°20.217 2°59.712 70.8 13.6 72 10.2
2007-07-05 07:27:52 51°20.227 2°59.735 71.1 12.7 56 10.4
2007-07-05 07:27:57 51°20.231 2°59.761 65.6 12.5 74 10.2
2007-07-05 07:28:03 51°20.24 2°59.793 72.1 13 65 10.2
2007-07-05 07:28:07 51°20.244 2°59.814 73 12.7 73 10.1
2007-07-05 07:28:12 51°20.252 2°59.838 72.6 12.1 64 10.4
2007-07-05 07:28:17 51°20.256 2°59.866 71.1 13.2 72 10.3
2007-07-05 07:28:22 51°20.266 2°59.892 74.6 13.3 60 10.2
2007-07-05 07:28:27 51°20.272 2°59.918 68.5 12.4 69 10.2
2007-07-05 07:28:32 51°20.278 2°59.942 69.6 11.9 68 10.4
2007-07-05 07:28:37 51°20.284 2°59.97 73.2 13.5 71 10.4
2007-07-05 07:28:43 51°20.295 2°59.999 72.5 12.8 58 10.3
2007-07-05 07:28:47 51°20.297 3°0.021 66.4 12.3 77 10.5
2007-07-05 07:28:52 51°20.304 3°0.049 74 13.5 68 10.1
2007-07-05 07:28:57 51°20.313 3°0.074 75.4 12.2 66 10.1
2007-07-05 07:29:03 51°20.319 3°0.105 67.7 12.4 69 10.2
2007-07-05 07:29:07 51°20.326 3°0.125 72.3 12.7 64 10.2
2007-07-05 07:29:12 51°20.332 3°0.151 70.2 12.6 69 10.1
2007-07-05 07:29:17 51°20.339 3°0.176 70.8 12.7 65 10.3
2007-07-05 07:29:23 51°20.346 3°0.207 70.6 12.4 69 10.2
2007-07-05 07:29:27 51°20.352 3°0.227 71.1 12.3 68 10.4
2007-07-05 07:29:32 51°20.357 3°0.255 71.8 13.1 72 10.4
2007-07-05 07:29:37 51°20.364 3°0.283 74.7 13.2 63 10.2
2007-07-05 07:29:42 51°20.374 3°0.305 69.7 11.6 67 10.4
2007-07-05 07:29:47 51°20.376 3°0.332 67.9 12.5 72 10.2
2007-07-05 07:29:52 51°20.384 3°0.359 77.9 13.2 71 10.1
2007-07-05 07:29:57 51°20.389 3°0.385 73.7 12.6 66 10
2007-07-05 07:30:02 51°20.395 3°0.41 72.1 11.9 74 10.1
2007-07-05 07:30:07 51°20.402 3°0.435 73 12.1 67 10.3
2007-07-05 07:30:12 51°20.407 3°0.462 73.3 13 72 10.2
2007-07-05 07:30:17 51°20.416 3°0.488 72.9 12.9 67 10.4
2007-07-05 07:30:23 51°20.421 3°0.522 70.4 13.1 71 10.3
2007-07-05 07:30:27 51°20.43 3°0.54 72.6 12.5 57 10.4
2007-07-05 07:30:32 51°20.433 3°0.566 67.2 12.2 76 10.4
2007-07-05 07:30:37 51°20.441 3°0.592 73.4 13.2 65 10.2
2007-07-05 07:30:42 51°20.447 3°0.619 73.3 12.7 71 10.3
2007-07-05 07:30:47 51°20.454 3°0.644 71.7 12.3 67 10.3
2007-07-05 07:30:52 51°20.46 3°0.67 72.6 12.6 69 10.5
2007-07-05 07:30:57 51°20.467 3°0.696 72.4 12.7 65 10.4
2007-07-05 07:31:03 51°20.476 3°0.726 69.7 12.4 66 10.2
2007-07-05 07:31:07 51°20.482 3°0.746 67.7 12.5 64 10.3
2007-07-05 07:31:12 51°20.487 3°0.772 68.2 12.6 73 10.2
2007-07-05 07:31:17 51°20.495 3°0.796 71.9 12.4 62 10.5
2007-07-05 07:31:23 51°20.501 3°0.83 69.8 13.1 76 10.4
2007-07-05 07:31:27 51°20.508 3°0.85 74.1 13.2 61 10.4
2007-07-05 07:31:32 51°20.517 3°0.873 68.7 12 61 10.3
2007-07-05 07:31:37 51°20.523 3°0.897 64.6 12 67 10.3
2007-07-05 07:31:42 51°20.53 3°0.924 69.4 13.5 67 10.3
2007-07-05 07:31:47 51°20.539 3°0.95 69.9 12.9 60 10
2007-07-05 07:31:52 51°20.544 3°0.974 67.1 11.8 72 10.2
2007-07-05 07:31:57 51°20.55 3°1.001 71.5 12.6 64 10.1
2007-07-05 07:32:02 51°20.558 3°1.024 73.9 12 63 10
2007-07-05 07:32:07 51°20.565 3°1.048 66.5 12.2 64 10.2
2007-07-05 07:32:12 51°20.572 3°1.075 67.8 13 65 10.1
2007-07-05 07:32:17 51°20.581 3°1.099 68 12.6 65 10.4
2007-07-05 07:32:22 51°20.586 3°1.126 66.4 12.2 68 10.4
2007-07-05 07:32:27 51°20.592 3°1.15 70.2 12.1 73 10.5
2007-07-05 07:32:32 51°20.599 3°1.176 74 12.6 65 10.5
2007-07-05 07:32:37 51°20.607 3°1.201 70.7 12.6 65 10.4
2007-07-05 07:32:42 51°20.613 3°1.226 68 12.2 70 10.5
2007-07-05 07:32:47 51°20.618 3°1.254 71.6 12.8 73 10.4
2007-07-05 07:32:52 51°20.626 3°1.279 73.7 12.8 65 10.3
2007-07-05 07:32:57 51°20.631 3°1.305 69.3 12.1 73 10.3
2007-07-05 07:33:02 51°20.637 3°1.331 72.6 12.7 68 10.4
2007-07-05 07:33:07 51°20.645 3°1.357 74 13.1 64 10.4
2007-07-05 07:33:12 51°20.653 3°1.382 68.1 12.6 64 10.4
2007-07-05 07:33:17 51°20.66 3°1.407 66.2 12.2 71 10.4
2007-07-05 07:33:23 51°20.667 3°1.439 69.4 12.8 65 10.4
2007-07-05 07:33:27 51°20.674 3°1.458 72.5 12.3 66 10.3
2007-07-05 07:33:32 51°20.679 3°1.485 67.3 13 72 10.3
2007-07-05 07:33:37 51°20.689 3°1.509 71.4 12.8 54 10.3
2007-07-05 07:33:43 51°20.695 3°1.539 63.2 12 76 10.3
2007-07-05 07:33:47 51°20.701 3°1.559 69.7 12.5 66 10.4
2007-07-05 07:33:52 51°20.706 3°1.586 72.5 12.8 73 10.3
2007-07-05 07:33:57 51°20.713 3°1.611 72.7 12 69 10.4
2007-07-05 07:34:03 51°20.718 3°1.642 73.3 12.3 73 10.6
2007-07-05 07:34:07 51°20.724 3°1.663 75.3 12.9 69 10.5
2007-07-05 07:34:12 51°20.729 3°1.691 73.4 13.1 72 10.4
2007-07-05 07:34:17 51°20.736 3°1.716 73.3 12.2 70 10.5
2007-07-05 07:34:22 51°20.741 3°1.742 72.4 12.4 71 10.5
2007-07-05 07:34:27 51°20.747 3°1.768 74.3 12.7 66 10.5
2007-07-05 07:34:32 51°20.753 3°1.795 72.1 13.1 75 10.4
2007-07-05 07:34:37 51°20.76 3°1.822 74.7 13 64 10.4
2007-07-05 07:34:42 51°20.766 3°1.847 71.7 12.1 72 10.3
2007-07-05 07:34:47 51°20.771 3°1.874 71.3 12.6 73 10.6
2007-07-05 07:34:52 51°20.777 3°1.902 75.4 13.4 71 10.3
2007-07-05 07:34:57 51°20.785 3°1.926 71.8 11.7 65 10.3
2007-07-05 07:35:02 51°20.786 3°1.951 68.8 12.1 83 10.4
2007-07-05 07:35:07 51°20.792 3°1.98 80.3 13.5 73 10.1
2007-07-05 07:35:12 51°20.797 3°2.009 80 13.4 72 9.9
2007-07-05 07:35:17 51°20.805 3°2.032 73.1 11.8 67 9.9
2007-07-05 07:35:22 51°20.807 3°2.058 71.7 11.9 78 10.3
2007-07-05 07:35:27 51°20.814 3°2.085 77.6 12.8 71 10.2
2007-07-05 07:35:32 51°20.818 3°2.113 76.7 13.1 75 10.2
2007-07-05 07:35:37 51°20.824 3°2.138 75.1 12.3 69 10.4
2007-07-05 07:35:43 51°20.829 3°2.17 75.3 12.2 74 10.5
2007-07-05 07:35:47 51°20.834 3°2.19 76.9 12.5 68 10.4
2007-07-05 07:35:52 51°20.841 3°2.216 73.3 12.4 68 10.5
2007-07-05 07:35:57 51°20.847 3°2.242 71.2 12.5 69 10.4
2007-07-05 07:36:03 51°20.853 3°2.272 71.1 12.1 72 10.5
2007-07-05 07:36:07 51°20.858 3°2.292 72.2 12.1 71 10.6
2007-07-05 07:36:12 51°20.862 3°2.321 74.9 13.1 74 10.2
2007-07-05 07:36:17 51°20.871 3°2.345 76 12.7 63 10.3
2007-07-05 07:36:22 51°20.877 3°2.371 67.3 12 71 10.3
2007-07-05 07:36:27 51°20.882 3°2.397 69.1 12.5 69 10.3
2007-07-05 07:36:32 51°20.89 3°2.422 73.5 12.9 63 10.4
2007-07-05 07:36:37 51°20.898 3°2.447 67.9 12.3 64 10.3
2007-07-05 07:36:42 51°20.903 3°2.472 67.5 12.5 72 10.4
2007-07-05 07:36:47 51°20.91 3°2.499 72.5 12.9 66 10.2
2007-07-05 07:36:52 51°20.917 3°2.523 68.9 11.9 69 10.3
2007-07-05 07:36:57 51°20.922 3°2.549 69.3 12.4 72 10.5
2007-07-05 07:37:02 51°20.929 3°2.575 74 12.8 66 10.2
2007-07-05 07:37:07 51°20.935 3°2.601 71.4 12.2 70 10.4
2007-07-05 07:37:12 51°20.94 3°2.627 72.1 12.3 73 10.4
2007-07-05 07:37:17 51°20.946 3°2.653 73.6 12.7 69 10.4
2007-07-05 07:37:22 51°20.952 3°2.679 73.7 12.5 73 10.4
2007-07-05 07:37:27 51°20.957 3°2.706 73.7 12.6 71 10.4
2007-07-05 07:37:32 51°20.963 3°2.732 73.8 12.5 70 10.4
2007-07-05 07:37:37 51°20.968 3°2.759 72.9 12.6 71 10.4
2007-07-05 07:37:43 51°20.976 3°2.789 73.5 12.2 68 10.5
2007-07-05 07:37:47 51°20.98 3°2.81 71.7 12.5 74 10.5
2007-07-05 07:37:52 51°20.986 3°2.837 74.8 13 70 10.3
2007-07-05 07:37:57 51°20.993 3°2.863 72.1 12.4 68 10.3
2007-07-05 07:38:03 51°20.997 3°2.895 71.6 12.6 79 10.4
2007-07-05 07:38:07 51°21.003 3°2.916 77.6 12.8 64 10.3
2007-07-05 07:38:12 51°21.01 3°2.941 74.5 12.3 67 10.3
2007-07-05 07:38:17 51°21.015 3°2.967 70.2 12.5 72 10.3
2007-07-05 07:38:22 51°21.023 3°2.992 73.1 12.4 66 10.3
2007-07-05 07:38:27 51°21.027 3°3.019 70.2 12.7 75 10.3
2007-07-05 07:38:32 51°21.034 3°3.045 73.9 12.9 66 10.4
2007-07-05 07:38:37 51°21.039 3°3.071 72.1 11.9 75 10.5
2007-07-05 07:38:42 51°21.044 3°3.097 72.5 12.4 72 10.5
2007-07-05 07:38:47 51°21.049 3°3.125 76.6 13.2 72 10.4
2007-07-05 07:38:52 51°21.056 3°3.151 75.3 12.8 69 10.4
2007-07-05 07:38:57 51°21.06 3°3.177 73.3 11.9 74 10.5
2007-07-05 07:39:02 51°21.065 3°3.202 74.7 12.3 76 10.7
2007-07-05 07:39:07 51°21.07 3°3.23 76.5 13 69 10.4
2007-07-05 07:39:12 51°21.078 3°3.256 76.2 12.7 67 10.2
2007-07-05 07:39:17 51°21.083 3°3.282 70.4 12.6 73 10.3
2007-07-05 07:39:22 51°21.089 3°3.309 72.4 12.4 70 10.3
2007-07-05 07:39:27 51°21.093 3°3.334 73.2 12.1 75 10.5
2007-07-05 07:39:32 51°21.099 3°3.36 76.1 12.3 73 10.6
2007-07-05 07:39:37 51°21.104 3°3.387 76.7 12.6 71 10.5
2007-07-05 07:39:42 51°21.11 3°3.414 75.2 12.9 72 10.6
2007-07-05 07:39:47 51°21.116 3°3.44 74.3 12.8 69 10.4
2007-07-05 07:39:52 51°21.123 3°3.465 72.5 12.2 69 10.5
2007-07-05 07:39:57 51°21.127 3°3.491 71.1 12.4 65 10.4
2007-07-05 07:40:03 51°21.135 3°3.522 72.4 12.4 72 10.5
2007-07-05 07:40:07 51°21.14 3°3.543 71.7 12.7 71 10.5
2007-07-05 07:40:12 51°21.148 3°3.568 73.1 12.4 64 10.5
2007-07-05 07:40:17 51°21.152 3°3.594 69.5 12.3 72 10.5
2007-07-05 07:40:23 51°21.16 3°3.625 73.1 12.4 69 10.4
2007-07-05 07:40:27 51°21.164 3°3.645 72.8 12.2 72 10.6
2007-07-05 07:40:32 51°21.169 3°3.671 73 12.4 72 10.5
2007-07-05 07:40:37 51°21.174 3°3.699 75.3 12.8 73 10.5
2007-07-05 07:40:43 51°21.183 3°3.728 74.8 12.2 67 10.6
2007-07-05 07:40:47 51°21.185 3°3.749 72.1 11.9 75 10.6
2007-07-05 07:40:52 51°21.191 3°3.776 75.3 13 74 10.5
2007-07-05 07:40:57 51°21.198 3°3.803 75.9 12.7 66 10.5
2007-07-05 07:41:02 51°21.202 3°3.828 71.6 11.7 77 10.5
2007-07-05 07:41:07 51°21.207 3°3.853 74.8 12 73 10.6
2007-07-05 07:41:12 51°21.211 3°3.88 77.5 12.8 75 10.5
2007-07-05 07:41:17 51°21.218 3°3.908 76.9 13.1 69 10.4
2007-07-05 07:41:22 51°21.225 3°3.933 72.3 12 67 10.4
2007-07-05 07:41:27 51°21.228 3°3.957 70.2 11.5 77 10.5
2007-07-05 07:41:32 51°21.233 3°3.985 76.2 13 74 10.5
2007-07-05 07:41:37 51°21.241 3°4.01 76.7 12.6 60 10.6
2007-07-05 07:41:43 51°21.246 3°4.041 69.3 12.2 78 10.5
2007-07-05 07:41:47 51°21.25 3°4.062 71.9 12.4 73 10.3
2007-07-05 07:41:52 51°21.257 3°4.087 75.2 12.2 77 10.5
2007-07-05 07:41:57 51°21.26 3°4.116 75.5 13.2 74 10.4
2007-07-05 07:42:02 51°21.268 3°4.14 77.3 12.2 61 10.5
2007-07-05 07:42:07 51°21.272 3°4.165 68.6 11.4 75 10.7
2007-07-05 07:42:12 51°21.278 3°4.191 73.1 12.5 71 10.6
2007-07-05 07:42:18 51°21.285 3°4.224 75.3 13.2 71 10.4
2007-07-05 07:42:23 51°21.291 3°4.25 74 12.7 68 10.3
2007-07-05 07:42:27 51°21.296 3°4.271 72.2 12.4 71 10.5
2007-07-05 07:42:32 51°21.302 3°4.297 72 12.7 71 10.6
2007-07-05 07:42:37 51°21.308 3°4.324 73.5 12.8 68 10.6
2007-07-05 07:42:43 51°21.314 3°4.355 71.8 12.2 76 10.6
2007-07-05 07:42:47 51°21.318 3°4.377 73.2 13.1 72 10.6
2007-07-05 07:42:52 51°21.325 3°4.403 76.9 12.8 65 10.5
2007-07-05 07:42:57 51°21.329 3°4.43 71.8 12.4 76 10.6
2007-07-05 07:43:02 51°21.336 3°4.457 75.1 13 66 10.5
2007-07-05 07:43:07 51°21.344 3°4.481 72.9 12.2 64 10.5
2007-07-05 07:43:12 51°21.348 3°4.507 68.1 12.4 76 10.5
2007-07-05 07:43:17 51°21.354 3°4.535 74.2 13.1 68 10.4
2007-07-05 07:43:22 51°21.362 3°4.559 72.8 11.8 68 10.5
2007-07-05 07:43:27 51°21.363 3°4.585 69.2 11.8 82 10.5
2007-07-05 07:43:32 51°21.369 3°4.612 79.1 12.6 73 10.5
2007-07-05 07:43:37 51°21.375 3°4.638 77.6 12.7 72 10.5
2007-07-05 07:43:42 51°21.381 3°4.665 73.9 12.3 69 10.6
2007-07-05 07:43:47 51°21.387 3°4.689 72.8 11.9 70 10.7
2007-07-05 07:43:52 51°21.39 3°4.716 73.8 12.3 76 10.8
2007-07-05 07:43:57 51°21.396 3°4.743 76.9 12.9 69 10.7
2007-07-05 07:44:03 51°21.405 3°4.772 73.9 12 64 10.7
2007-07-05 07:44:07 51°21.407 3°4.794 68.8 12.3 79 10.7
2007-07-05 07:44:12 51°21.415 3°4.819 75.5 12.7 65 10.7
2007-07-05 07:44:17 51°21.419 3°4.846 72 12.3 79 10.6
2007-07-05 07:44:22 51°21.425 3°4.871 74.6 12.5 65 10.6
2007-07-05 07:44:27 51°21.431 3°4.897 74.4 12.3 72 10.6
2007-07-05 07:44:32 51°21.437 3°4.922 72.5 12.1 68 10.7
2007-07-05 07:44:38 51°21.441 3°4.954 72.9 12.5 76 10.7
2007-07-05 07:44:43 51°21.449 3°4.979 75 12.2 66 10.8
2007-07-05 07:44:47 51°21.451 3°4.999 73.1 11.7 78 10.9
2007-07-05 07:44:52 51°21.455 3°5.027 75.9 12.7 76 10.6
2007-07-05 07:44:57 51°21.463 3°5.052 79.1 12.8 65 10.6
2007-07-05 07:45:03 51°21.469 3°5.084 71.6 12.2 71 10.6
2007-07-05 07:45:07 51°21.475 3°5.102 71.8 11.7 68 10.7
2007-07-05 07:45:12 51°21.478 3°5.128 70.4 12 78 10.9
2007-07-05 07:45:17 51°21.485 3°5.153 75.8 12.4 67 10.9
2007-07-05 07:45:23 51°21.491 3°5.187 73.1 13 74 10.6
2007-07-05 07:45:27 51°21.498 3°5.205 73.7 12.4 60 10.8
2007-07-05 07:45:32 51°21.501 3°5.231 68.8 12 79 10.6
2007-07-05 07:45:37 51°21.509 3°5.255 73.8 12 67 10.9
2007-07-05 07:45:42 51°21.511 3°5.283 72.5 12.4 76 10.7
2007-07-05 07:45:47 51°21.52 3°5.306 76.7 12 63 10.8
2007-07-05 07:45:52 51°21.523 3°5.331 71.1 11.8 75 10.7
2007-07-05 07:45:57 51°21.53 3°5.356 73.7 12.5 69 10.7
2007-07-05 07:46:02 51°21.536 3°5.383 73.3 12.8 69 10.7
2007-07-05 07:46:07 51°21.542 3°5.408 71.5 12.1 69 10.5
2007-07-05 07:46:12 51°21.547 3°5.432 71.4 11.5 72 10.8
2007-07-05 07:46:17 51°21.552 3°5.459 73.4 12.5 71 10.8
2007-07-05 07:46:23 51°21.56 3°5.489 75.7 12.4 66 10.8
2007-07-05 07:46:27 51°21.565 3°5.509 71 12.1 70 10.8
2007-07-05 07:46:32 51°21.571 3°5.533 71.1 12.1 67 11
2007-07-05 07:46:37 51°21.576 3°5.56 71 12.4 72 10.7
2007-07-05 07:46:42 51°21.583 3°5.584 73 12.2 68 10.8
2007-07-05 07:46:47 51°21.587 3°5.611 71.7 12.2 74 10.8
2007-07-05 07:46:52 51°21.595 3°5.634 73.2 11.9 64 10.9
2007-07-05 07:46:58 51°21.6 3°5.668 71.1 13.1 75 10.7
2007-07-05 07:47:03 51°21.61 3°5.692 75.8 13.1 58 10.6
2007-07-05 07:47:07 51°21.614 3°5.712 67.6 11.8 70 10.6
2007-07-05 07:47:12 51°21.62 3°5.736 67.9 11.7 70 10.8
2007-07-05 07:47:17 51°21.626 3°5.762 72 12.4 70 11
2007-07-05 07:47:23 51°21.632 3°5.794 72.5 12.5 70 10.8
2007-07-05 07:47:27 51°21.636 3°5.814 73 12 73 10.9
2007-07-05 07:47:32 51°21.642 3°5.84 74.2 12.4 72 11
2007-07-05 07:47:37 51°21.648 3°5.866 74.4 12.6 65 11
2007-07-05 07:47:42 51°21.655 3°5.891 70.4 11.8 72 10.8
2007-07-05 07:47:47 51°21.658 3°5.916 71.4 11.8 74 10.9
2007-07-05 07:47:52 51°21.664 3°5.942 75.4 12.4 72 10.9
2007-07-05 07:47:57 51°21.67 3°5.968 74.7 12.4 71 11
2007-07-05 07:48:02 51°21.675 3°5.993 73 11.8 72 11
2007-07-05 07:48:07 51°21.679 3°6.018 72.7 11.8 74 10.9
2007-07-05 07:48:12 51°21.685 3°6.043 75.3 12.1 72 11
2007-07-05 07:48:17 51°21.69 3°6.071 74.8 12.9 73 11
2007-07-05 07:48:22 51°21.697 3°6.097 75.2 12.4 67 10.9
2007-07-05 07:48:27 51°21.702 3°6.12 70.9 11.4 70 11
2007-07-05 07:48:32 51°21.705 3°6.146 71.4 12.1 77 11.1
2007-07-05 07:48:37 51°21.712 3°6.174 77.6 13.2 63 10.8
2007-07-05 07:48:43 51°21.72 3°6.204 71.1 11.9 73 10.9
2007-07-05 07:48:47 51°21.723 3°6.224 69.5 11.9 74 11
2007-07-05 07:48:52 51°21.729 3°6.251 75.6 12.8 71 10.9
2007-07-05 07:48:57 51°21.736 3°6.276 72.5 12.5 67 10.8
2007-07-05 07:49:03 51°21.741 3°6.306 70.6 11.7 77 11.1
2007-07-05 07:49:07 51°21.745 3°6.328 74.2 12.6 75 11.1
2007-07-05 07:49:12 51°21.752 3°6.354 78.2 12.8 64 11
2007-07-05 07:49:18 51°21.76 3°6.384 69.5 12 71 11.2
2007-07-05 07:49:23 51°21.766 3°6.408 69.7 12.1 67 11.2
2007-07-05 07:49:27 51°21.772 3°6.428 71.3 12.1 65 11.1
2007-07-05 07:49:32 51°21.777 3°6.452 68.8 11.7 69 11.1
2007-07-05 07:49:37 51°21.782 3°6.477 70 12 75 11.3
2007-07-05 07:49:43 51°21.789 3°6.509 75 12.6 69 11.1
2007-07-05 07:49:47 51°21.795 3°6.527 74.8 11.9 69 11.2
2007-07-05 07:49:52 51°21.798 3°6.554 70.3 12 78 11.1
2007-07-05 07:49:57 51°21.803 3°6.578 74.8 11.8 72 11
2007-07-05 07:50:03 51°21.807 3°6.609 76 11.7 78 11.4
2007-07-05 07:50:07 51°21.811 3°6.631 78.7 13.1 72 11.2
2007-07-05 07:50:12 51°21.819 3°6.657 76 12.8 66 11.2
2007-07-05 07:50:17 51°21.823 3°6.681 68.5 11 81 11.2
2007-07-05 07:50:22 51°21.825 3°6.705 73.2 11.4 79 11.5
2007-07-05 07:50:27 51°21.83 3°6.732 82.2 13 73 11.3
2007-07-05 07:50:32 51°21.837 3°6.759 77.8 12.9 67 11.1
2007-07-05 07:50:37 51°21.844 3°6.781 69.1 11.3 72 11.2
2007-07-05 07:50:42 51°21.847 3°6.807 68.8 11.7 75 11.2
2007-07-05 07:50:47 51°21.851 3°6.832 77.6 12 75 11.2
2007-07-05 07:50:52 51°21.856 3°6.858 77.8 12 72 11.4
2007-07-05 07:50:57 51°21.86 3°6.883 76.9 11.9 73 11.2
2007-07-05 07:51:03 51°21.868 3°6.912 74.6 11.6 68 11.4
2007-07-05 07:51:07 51°21.869 3°6.934 72.1 12.3 82 11.2
2007-07-05 07:51:12 51°21.877 3°6.958 77.2 12.2 64 11.4
2007-07-05 07:51:17 51°21.879 3°6.984 72.5 12 80 11.3
2007-07-05 07:51:23 51°21.887 3°7.015 77.3 12.7 70 11.4
2007-07-05 07:51:27 51°21.891 3°7.036 75.4 12.4 72 11.3
2007-07-05 07:51:32 51°21.895 3°7.061 72.7 11.7 75 11.5
2007-07-05 07:51:38 51°21.899 3°7.092 76.2 12 77 11.5
2007-07-05 07:51:43 51°21.902 3°7.121 79.5 13.3 80 11.5
2007-07-05 07:51:47 51°21.906 3°7.142 80.7 12.8 74 11.3
2007-07-05 07:51:52 51°21.911 3°7.166 74.7 11.2 77 11.5
2007-07-05 07:51:57 51°21.911 3°7.192 77.9 12 84 11.4
2007-07-05 07:52:03 51°21.913 3°7.227 86.7 13.2 86 11.3
2007-07-05 07:52:07 51°21.917 3°7.249 85.7 12.8 73 11.2
2007-07-05 07:52:12 51°21.92 3°7.275 79.8 11.9 81 11.2
2007-07-05 07:52:17 51°21.921 3°7.301 81.2 11.6 80 11.4
2007-07-05 07:52:22 51°21.923 3°7.327 83.2 11.8 86 11.5
2007-07-05 07:52:27 51°21.925 3°7.353 84.8 12.3 81 11.7
2007-07-05 07:52:32 51°21.928 3°7.38 84.6 12.4 81 11.6
2007-07-05 07:52:37 51°21.932 3°7.406 81.5 11.5 78 11.6
2007-07-05 07:52:42 51°21.933 3°7.431 80 11.5 85 11.7
2007-07-05 07:52:47 51°21.937 3°7.457 82.8 12 79 11.8
2007-07-05 07:52:52 51°21.938 3°7.483 81.6 12 83 11.6
2007-07-05 07:52:57 51°21.942 3°7.507 80.7 11.1 81 11.8
2007-07-05 07:53:03 51°21.943 3°7.539 81 11.9 83 11.5
2007-07-05 07:53:07 51°21.949 3°7.559 83.4 12.3 72 11.5
2007-07-05 07:53:12 51°21.951 3°7.585 77.8 11.5 81 11.5
2007-07-05 07:53:17 51°21.953 3°7.609 79.2 11.1 80 11.7
2007-07-05 07:53:22 51°21.956 3°7.635 81.7 11.9 81 11.6
2007-07-05 07:53:27 51°21.958 3°7.663 82.3 12.9 82 11.5
2007-07-05 07:53:32 51°21.964 3°7.689 81.6 12.5 70 11.5
2007-07-05 07:53:38 51°21.967 3°7.719 75.9 11.5 84 11.5
2007-07-05 07:53:43 51°21.971 3°7.745 79.7 12.1 76 11.4
2007-07-05 07:53:47 51°21.975 3°7.765 80.5 12 73 11.4
2007-07-05 07:53:52 51°21.977 3°7.791 76.5 12 80 11.4
2007-07-05 07:53:57 51°21.983 3°7.817 79.3 12 70 11.4
2007-07-05 07:54:03 51°21.987 3°7.847 75.4 11.6 80 11.5
2007-07-05 07:54:07 51°21.989 3°7.868 77.5 12.2 78 11.5
2007-07-05 07:54:12 51°21.993 3°7.895 80.5 12.4 78 11.4
2007-07-05 07:54:17 51°21.997 3°7.921 79.5 12.1 79 11.6
2007-07-05 07:54:22 51°22 3°7.947 79.9 12 77 11.6
2007-07-05 07:54:27 51°22.005 3°7.973 79.3 12 76 11.7
2007-07-05 07:54:32 51°22.008 3°7.999 77.5 11.9 77 11.6
2007-07-05 07:54:37 51°22.012 3°8.023 77.3 11.3 79 11.7
2007-07-05 07:54:42 51°22.014 3°8.049 78.3 12.1 80 11.7
2007-07-05 07:54:47 51°22.02 3°8.074 80 12.2 71 11.4
2007-07-05 07:54:52 51°22.021 3°8.102 75.9 12.3 85 11.4
2007-07-05 07:54:57 51°22.026 3°8.127 81.2 11.9 72 11.4
2007-07-05 07:55:02 51°22.029 3°8.151 78.5 11.1 86 11.6
2007-07-05 07:55:07 51°22.031 3°8.177 81 11.7 81 11.6
2007-07-05 07:55:12 51°22.033 3°8.205 83.4 12.6 83 11.5